ADDS METAR Data INFO
IDs: Format: Raw Decoded Include TAF

Data at: 1409 UTC 24 Feb 2018

KSYI 241355Z AUTO 20013KT 9SM BKN013 OVC018 18/17 A3009 RMK A01 P0001
KSYI 241335Z AUTO 19010KT 10SM BKN014 BKN019 18/17 A3008 RMK A01
KSYI 241315Z AUTO 18010KT 2 1/2SM BR FEW009 BKN014 OVC020 18/17 A3009 RMK A01 VIS 2V4
KSYI 241255Z AUTO 19008KT 8SM OVC014 18/17 A3009 RMK A01
KSYI 241235Z AUTO 19007KT 9SM OVC017 17/16 A3008 RMK A01
KSYI 241215Z AUTO 18007KT 6SM BR BKN019 OVC035 17/16 A3008 RMK A01
KSYI 241155Z AUTO 17007KT 10SM BKN017 BKN033 OVC085 17/16 A3008 RMK A01
KSYI 241135Z AUTO 18007KT 10SM SCT015 SCT029 OVC065 17/16 A3008 RMK A01
KSYI 241115Z AUTO 16008KT 5SM BR FEW029 SCT050 OVC065 17/16 A3008 RMK A01
KSYI 241055Z AUTO 16007KT 10SM OVC070 17/16 A3008 RMK A01
KSYI 241035Z AUTO 15007KT 9SM SCT055 OVC070 17/16 A3008 RMK A01
KSYI 241015Z AUTO 15008KT 10SM SCT060 OVC070 16/16 A3008 RMK A01
KSYI 240955Z AUTO 16007KT 10SM FEW060 OVC070 16/15 A3009 RMK A01
KSYI 240935Z AUTO 14006KT 10SM FEW005 FEW060 OVC070 16/15 A3009 RMK A01
KSYI 240915Z AUTO 13005KT 10SM SCT025 BKN065 OVC075 16/15 A3010 RMK A01
KSYI 240855Z AUTO 13006KT 10SM BKN027 BKN033 OVC065 16/15 A3011 RMK A01 P0014
KSYI 240835Z AUTO 14005KT 10SM FEW002 BKN032 OVC040 16/15 A3012 RMK A01
KSYI 240815Z AUTO 15005KT 2SM BR SCT003 BKN026 OVC044 15/15 A3013 RMK A01
KSYI 240755Z AUTO 18005KT 3SM BR BKN025 OVC044 16/15 A3015 RMK A01 P0012
KSYI 240735Z AUTO 00000KT 4SM BR BKN026 BKN045 OVC055 16/15 A3015 RMK A01
KSYI 240715Z AUTO 00000KT 5SM BR SCT027 BKN055 OVC065 16/15 A3015 RMK A01
KSYI 240655Z AUTO 00000KT 8SM FEW033 BKN065 OVC095 17/13 A3015 RMK A01
KSYI 240635Z AUTO 00000KT 10SM FEW041 SCT065 BKN075 18/13 A3015 RMK A01
KSYI 240615Z AUTO 20003KT 10SM FEW065 SCT075 OVC095 19/13 A3016 RMK A01
KSYI 240555Z AUTO 00000KT 10SM FEW049 FEW060 OVC095 19/13 A3017 RMK A01
KSYI 240535Z AUTO 17004KT 10SM FEW049 SCT065 OVC090 19/13 A3017 RMK A01
KSYI 240515Z AUTO 17003KT 10SM FEW055 BKN075 OVC110 18/13 A3017 RMK A01
KSYI 240455Z AUTO 18003KT 10SM FEW060 SCT075 OVC100 18/13 A3018 RMK A01
KSYI 240435Z AUTO 19005KT 10SM FEW055 SCT065 OVC100 18/13 A3019 RMK A01
KSYI 240415Z AUTO 19005KT 10SM FEW075 BKN100 OVC120 18/13 A3019 RMK A01
KSYI 240355Z AUTO 20005KT 10SM BKN120 18/13 A3019 RMK A01
KSYI 240335Z AUTO 16004KT 10SM SCT120 18/13 A3019 RMK A01
KSYI 240315Z AUTO 17003KT 10SM CLR 17/14 A3019 RMK A01
KSYI 240255Z AUTO 00000KT 10SM CLR 17/14 A3019 RMK A01
KSYI 240235Z AUTO 00000KT 10SM CLR 17/14 A3019 RMK A01
KSYI 240215Z AUTO 00000KT 10SM FEW120 18/13 A3020 RMK A01
KSYI 240155Z AUTO 00000KT 10SM CLR 17/14 A3019 RMK A01
KSYI 240135Z AUTO 13004KT 9SM CLR 17/14 A3019 RMK A01
KSYI 240115Z AUTO 00000KT 10SM CLR 18/14 A3021 RMK A01
KSYI 240055Z AUTO 14003KT 10SM CLR 18/14 A3021 RMK A01
KSYI 240035Z AUTO 23003KT 10SM CLR 20/13 A3021 RMK A01
KSYI 240015Z AUTO 21004KT 10SM CLR 21/13 A3021 RMK A01
KSYI 232355Z AUTO 18003KT 10SM CLR 21/13 A3020 RMK A01
KSYI 232335Z AUTO 16003KT 10SM CLR 22/13 A3020 RMK A01
KSYI 232315Z AUTO 18006KT 10SM CLR 21/14 A3021 RMK A01
KSYI 232255Z AUTO 19006KT 10SM CLR 22/14 A3021 RMK A01
KSYI 232235Z AUTO 21010KT 10SM CLR 24/14 A3022 RMK A01
KSYI 232215Z AUTO 20009KT 10SM CLR 25/14 A3021 RMK A01
KSYI 232155Z AUTO 19009KT 10SM FEW070 25/14 A3021 RMK A01
KSYI 232135Z AUTO 21010KT 10SM CLR 25/14 A3022 RMK A01
KSYI 232115Z AUTO 21007G15KT 10SM FEW049 25/14 A3022 RMK A01
KSYI 232055Z AUTO 21007KT 10SM FEW048 25/15 A3023 RMK A01
KSYI 232035Z AUTO 22009KT 10SM CLR 25/15 A3023 RMK A01
KSYI 232015Z AUTO 18009KT 10SM CLR 25/15 A3024 RMK A01
KSYI 231955Z AUTO 21009G14KT 10SM FEW041 25/15 A3025 RMK A01
KSYI 231935Z AUTO 20008G13KT 10SM CLR 25/16 A3026 RMK A01
KSYI 231915Z AUTO 20009KT 10SM FEW039 25/16 A3027 RMK A01
KSYI 231855Z AUTO 21008G13KT 10SM CLR 24/16 A3028 RMK A01
KSYI 231835Z AUTO 23010KT 10SM CLR 24/16 A3030 RMK A01
KSYI 231815Z AUTO 22007G13KT 10SM FEW034 FEW060 24/16 A3031 RMK A01
KSYI 231755Z AUTO 24010KT 10SM FEW034 SCT040 SCT046 23/16 A3032 RMK A01
KSYI 231735Z AUTO 22008G14KT 10SM SCT033 BKN039 BKN049 23/16 A3034 RMK A01
KSYI 231715Z AUTO 24010KT 10SM BKN032 OVC038 22/16 A3035 RMK A01
KSYI 231655Z AUTO 25011KT 10SM SCT030 BKN038 BKN060 23/16 A3035 RMK A01
KSYI 231635Z AUTO 22011KT 10SM SCT046 SCT060 23/17 A3037 RMK A01
KSYI 231615Z AUTO 21009KT 10SM FEW037 SCT048 BKN060 22/17 A3037 RMK A01
KSYI 231555Z AUTO 21010KT 10SM FEW036 SCT042 BKN055 21/17 A3037 RMK A01
KSYI 231535Z AUTO 20009KT 10SM FEW035 SCT048 BKN055 21/17 A3037 RMK A01
KSYI 231515Z AUTO 21008KT 10SM SCT043 BKN050 20/17 A3036 RMK A01
KSYI 231455Z AUTO 5.48000005KT 10SM BKN031 OVC042 20/17 A3036 RMK A01
KSYI 231435Z AUTO 21005KT 10SM BKN032 OVC042 19/17 A3036 RMK A01
KSYI 231415Z AUTO 20004KT 10SM BKN032 BKN043 19/17 A3035 RMK A01
KSYI 231355Z AUTO 19003KT 10SM BKN033 BKN043 19/16 A3034 RMK A01
KSYI 231335Z AUTO 18005KT 10SM FEW034 18/16 A3033 RMK A01
KSYI 231315Z AUTO 17004KT 10SM FEW033 18/16 A3032 RMK A01
KSYI 231255Z AUTO 15005KT 7SM CLR 16/15 A3032 RMK A01
KSYI 231235Z AUTO 13004KT 10SM CLR 16/15 A3031 RMK A01
KSYI 231215Z AUTO 00000KT 10SM CLR 17/15 A3031 RMK A01
KSYI 231155Z AUTO 18005KT 10SM FEW036 17/15 A3030 RMK A01
KSYI 231135Z AUTO 17006KT 10SM CLR 17/15 A3030 RMK A01
KSYI 231115Z AUTO 19005KT 10SM CLR 17/15 A3030 RMK A01
KSYI 231055Z AUTO 18006KT 10SM CLR 18/15 A3030 RMK A01
KSYI 231035Z AUTO 17008KT 10SM CLR 17/15 A3029 RMK A01
KSYI 231015Z AUTO 18007KT 10SM FEW032 FEW044 17/15 A3029 RMK A01
KSYI 230955Z AUTO 17006KT 10SM FEW032 BKN043 18/15 A3029 RMK A01
KSYI 230935Z AUTO 16007KT 10SM FEW032 BKN041 18/15 A3029 RMK A01
KSYI 230915Z AUTO 16008KT 10SM FEW041 18/15 A3028 RMK A01
KSYI 230855Z AUTO 16006KT 10SM CLR 17/15 A3028 RMK A01
KSYI 230835Z AUTO 15006KT 10SM CLR 17/14 A3029 RMK A01
KSYI 230815Z AUTO 13005KT 10SM CLR 17/14 A3029 RMK A01
KSYI 230755Z AUTO 14005KT 10SM CLR 17/14 A3030 RMK A01
KSYI 230735Z AUTO 12005KT 10SM CLR 16/14 A3030 RMK A01
KSYI 230715Z AUTO 14003KT 10SM CLR 17/14 A3030 RMK A01
KSYI 230655Z AUTO 14005KT 10SM CLR 17/14 A3029 RMK A01
KSYI 230635Z AUTO 13006KT 10SM CLR 17/15 A3029 RMK A01
KSYI 230615Z AUTO 13005KT 10SM CLR 17/15 A3029 RMK A01
KSYI 230555Z AUTO 13006KT 10SM CLR 17/15 A3029 RMK A01
KSYI 230535Z AUTO 13006KT 10SM CLR 17/15 A3030 RMK A01
KSYI 230515Z AUTO 12005KT 10SM CLR 16/15 A3030 RMK A01
KSYI 230455Z AUTO 13005KT 10SM CLR 16/15 A3031 RMK A01
KSYI 230435Z AUTO 12004KT 10SM CLR 14/14 A3031 RMK A01
KSYI 230415Z AUTO 11004KT 10SM CLR 15/15 A3032 RMK A01
KSYI 230355Z AUTO 08004KT 10SM CLR 15/15 A3032 RMK A01
KSYI 230335Z AUTO 00000KT 10SM CLR 15/15 A3032 RMK A01
KSYI 230315Z AUTO 12003KT 10SM CLR 16/15 A3032 RMK A01
KSYI 230255Z AUTO 11003KT 10SM FEW043 FEW048 SCT060 15/15 A3032 RMK A01
KSYI 230235Z AUTO 00000KT 10SM SCT044 SCT050 SCT055 15/15 A3033 RMK A01
KSYI 230215Z AUTO 00000KT 10SM CLR 16/15 A3033 RMK A01